createdAt,value
2023-01-03T00:01:44.772Z,84.20
2023-01-03T00:06:50.867Z,84.11
2023-01-03T00:12:13.817Z,83.99
2023-01-03T00:17:19.844Z,84.26
2023-01-03T00:22:23.219Z,84.36
2023-01-03T00:27:27.054Z,84.40
2023-01-03T00:32:30.320Z,84.38
2023-01-03T00:37:33.460Z,84.41
2023-01-03T00:42:56.564Z,84.33
2023-01-03T00:47:59.679Z,84.34
2023-01-03T00:53:02.797Z,84.74
2023-01-03T00:58:05.896Z,84.77
2023-01-03T01:03:09.188Z,84.49
2023-01-03T01:08:12.851Z,84.62
2023-01-03T01:13:16.896Z,84.61
2023-01-03T01:18:20.067Z,84.79
2023-01-03T01:23:23.130Z,84.97
2023-01-03T01:28:26.179Z,84.89
2023-01-03T01:33:31.463Z,84.75
2023-01-03T01:38:35.020Z,84.56
2023-01-03T01:44:17.385Z,84.43
2023-01-03T01:49:24.927Z,84.53
2023-01-03T01:54:29.462Z,84.48
2023-01-03T01:59:32.601Z,84.29
2023-01-03T02:04:38.677Z,84.10
2023-01-03T02:09:41.882Z,83.87
2023-01-03T02:15:12.903Z,83.83
2023-01-03T02:20:40.975Z,83.86
2023-01-03T02:25:53.201Z,84.19
2023-01-03T02:31:14.723Z,84.28
2023-01-03T02:36:30.195Z,84.17
2023-01-03T02:41:46.651Z,84.32
2023-01-03T02:46:56.058Z,84.71
2023-01-03T02:52:03.320Z,84.99
2023-01-03T02:57:15.027Z,85.29
2023-01-03T03:02:21.463Z,85.74
2023-01-03T03:07:34.339Z,86.10
2023-01-03T03:12:59.247Z,86.53
2023-01-03T03:18:07.635Z,86.91
2023-01-03T03:23:32.609Z,87.09
2023-01-03T03:28:39.919Z,87.33
2023-01-03T03:34:11.732Z,87.89
2023-01-03T03:39:34.880Z,88.15
2023-01-03T03:45:01.627Z,88.53
2023-01-03T03:50:27.585Z,88.84
2023-01-03T03:56:04.134Z,89.05
2023-01-03T04:01:10.503Z,89.02
2023-01-03T04:06:20.916Z,89.59
2023-01-03T04:11:24.121Z,90.14
2023-01-03T04:16:27.359Z,90.86
2023-01-03T04:21:30.660Z,90.91
2023-01-03T04:26:33.901Z,90.91
2023-01-03T04:31:37.202Z,91.02
2023-01-03T04:36:40.375Z,91.15
2023-01-03T04:41:43.474Z,91.61
2023-01-03T04:46:52.546Z,91.66
2023-01-03T04:51:56.336Z,92.21
2023-01-03T04:56:59.448Z,92.69
2023-01-03T05:02:03.642Z,93.14
2023-01-03T05:07:08.261Z,93.17
2023-01-03T05:12:12.467Z,92.96
2023-01-03T05:17:15.700Z,92.41
2023-01-03T05:22:57.453Z,92.11
2023-01-03T05:28:01.941Z,92.39
2023-01-03T05:33:05.128Z,92.57
2023-01-03T05:38:08.339Z,92.33
2023-01-03T05:43:11.674Z,91.88
2023-01-03T05:48:14.821Z,91.27
2023-01-03T05:53:18.383Z,90.65
2023-01-03T05:58:21.608Z,90.36
2023-01-03T06:03:24.918Z,90.30
2023-01-03T06:08:28.094Z,90.12
2023-01-03T06:13:31.278Z,89.94
2023-01-03T06:18:35.969Z,89.73
2023-01-03T06:23:39.181Z,89.77
2023-01-03T06:28:42.444Z,89.92
2023-01-03T06:33:45.595Z,90.05
2023-01-03T06:38:49.221Z,90.18
2023-01-03T06:43:54.682Z,90.02
2023-01-03T06:49:18.166Z,90.08
2023-01-03T06:54:24.384Z,90.43
2023-01-03T06:59:34.894Z,90.94
2023-01-03T07:04:38.056Z,91.29
2023-01-03T07:09:41.199Z,91.40
2023-01-03T07:14:44.404Z,91.52
2023-01-03T07:19:47.518Z,91.78
2023-01-03T07:24:50.612Z,91.98
2023-01-03T07:29:53.747Z,92.36
2023-01-03T07:34:59.603Z,92.75
2023-01-03T07:40:02.755Z,93.33
2023-01-03T07:45:06.748Z,94.02
2023-01-03T07:50:10.069Z,94.66
2023-01-03T07:55:13.276Z,95.01
2023-01-03T08:00:16.887Z,95.42
2023-01-03T08:05:24.189Z,95.67
2023-01-03T08:10:45.974Z,96.01
2023-01-03T08:15:52.510Z,96.29
2023-01-03T08:20:57.511Z,96.44
2023-01-03T08:26:05.280Z,96.47
2023-01-03T08:31:15.408Z,96.20
2023-01-03T08:36:54.268Z,95.67
2023-01-03T08:42:17.748Z,95.25
2023-01-03T08:47:21.648Z,94.37
2023-01-03T08:52:27.884Z,93.73
2023-01-03T08:57:35.079Z,92.69
2023-01-03T09:02:38.424Z,90.81
2023-01-03T09:07:42.647Z,89.54
2023-01-03T09:12:45.814Z,88.61
2023-01-03T09:17:49.588Z,87.48
2023-01-03T09:22:52.817Z,85.51
2023-01-03T09:27:57.167Z,84.32
2023-01-03T09:33:00.262Z,83.41
2023-01-03T09:38:03.936Z,81.97
2023-01-03T09:43:13.927Z,80.01
2023-01-03T09:48:25.648Z,79.73
2023-01-03T09:53:57.087Z,78.76
2023-01-03T09:59:35.642Z,77.49
2023-01-03T10:05:03.695Z,77.07
2023-01-03T10:10:37.492Z,76.16
2023-01-03T10:15:58.932Z,74.76
2023-01-03T10:21:09.778Z,73.41
2023-01-03T10:26:13.388Z,72.57
2023-01-03T10:31:27.847Z,71.83
2023-01-03T10:36:30.982Z,71.69
2023-01-03T10:41:40.840Z,71.31
2023-01-03T10:46:51.355Z,71.39
2023-01-03T10:52:01.201Z,71.97
2023-01-03T10:57:05.724Z,72.67
2023-01-03T11:02:09.154Z,72.26
2023-01-03T11:07:17.141Z,71.75
2023-01-03T11:12:41.842Z,71.03
2023-01-03T11:17:59.606Z,69.84
2023-01-03T11:23:15.906Z,70.16
2023-01-03T11:28:49.984Z,70.45
2023-01-03T11:34:21.466Z,70.78
2023-01-03T11:39:46.230Z,70.35
2023-01-03T11:45:08.407Z,70.51
2023-01-03T11:50:11.623Z,70.16
2023-01-03T11:55:35.349Z,70.41
2023-01-03T12:00:50.799Z,70.20
2023-01-03T12:06:28.320Z,70.44
2023-01-03T12:11:58.071Z,70.27
2023-01-03T12:17:06.014Z,68.66
2023-01-03T12:22:36.648Z,68.53
2023-01-03T12:27:47.214Z,69.36
2023-01-03T12:33:05.718Z,69.34
2023-01-03T12:38:10.800Z,69.84
2023-01-03T12:43:20.395Z,70.36
2023-01-03T12:48:27.073Z,70.87
2023-01-03T12:53:34.891Z,71.10
2023-01-03T12:58:57.104Z,70.74
2023-01-03T13:04:07.688Z,71.45
2023-01-03T13:09:28.172Z,71.32
2023-01-03T13:15:07.661Z,71.72
2023-01-03T13:20:32.680Z,72.04
2023-01-03T13:25:42.251Z,72.34
2023-01-03T13:30:46.712Z,72.57
2023-01-03T13:35:50.614Z,73.24
2023-01-03T13:41:19.104Z,73.53
2023-01-03T13:46:33.403Z,73.72
2023-01-03T13:51:40.181Z,74.09
2023-01-03T13:56:44.020Z,74.39
2023-01-03T14:02:06.904Z,74.55
2023-01-03T14:07:48.082Z,74.91
2023-01-03T14:13:14.122Z,75.19
2023-01-03T14:18:26.310Z,75.53
2023-01-03T14:29:00.824Z,75.95
2023-01-03T14:34:05.762Z,76.02
2023-01-03T14:39:22.756Z,76.19
2023-01-03T14:44:26.348Z,76.62
2023-01-03T14:49:50.443Z,76.88
2023-01-03T14:55:03.473Z,77.05
2023-01-03T15:00:16.016Z,77.59
2023-01-03T15:05:30.918Z,77.98
2023-01-03T15:10:44.950Z,78.12
2023-01-03T15:15:55.250Z,78.52
2023-01-03T15:21:01.526Z,78.89
2023-01-03T15:26:08.261Z,79.12
2023-01-03T15:31:24.435Z,79.52
2023-01-03T15:36:31.811Z,80.26
2023-01-03T15:47:31.828Z,81.09
2023-01-03T15:52:41.598Z,81.43
2023-01-03T15:57:51.307Z,81.80
2023-01-03T16:02:56.894Z,81.77
2023-01-03T16:08:00.944Z,81.98
2023-01-03T16:13:04.274Z,81.81
2023-01-03T16:18:07.327Z,81.70
2023-01-03T16:23:30.711Z,81.78
2023-01-03T16:29:16.754Z,81.25
2023-01-03T16:34:33.663Z,81.42
2023-01-03T16:40:07.084Z,81.66
2023-01-03T16:45:13.788Z,81.82
2023-01-03T16:50:44.267Z,81.94
2023-01-03T16:56:11.683Z,81.98
2023-01-03T17:07:09.921Z,82.54
2023-01-03T17:12:22.263Z,82.67
2023-01-03T17:17:25.650Z,82.75
2023-01-03T17:22:28.866Z,83.06
2023-01-03T17:27:33.514Z,83.55
2023-01-03T17:32:37.055Z,83.48
2023-01-03T17:37:58.301Z,84.19
2023-01-03T17:43:03.612Z,84.54
2023-01-03T17:48:31.670Z,84.76
2023-01-03T17:53:35.040Z,85.01
2023-01-03T17:58:39.492Z,84.89
2023-01-03T18:03:42.751Z,85.23
2023-01-03T18:08:47.826Z,85.26
2023-01-03T18:13:51.088Z,85.10
2023-01-03T18:18:54.204Z,84.95
2023-01-03T18:24:01.561Z,84.87
2023-01-03T18:29:06.239Z,84.75
2023-01-03T18:34:13.623Z,84.07
2023-01-03T18:39:48.749Z,84.50
2023-01-03T18:44:51.979Z,84.18
2023-01-03T18:49:55.115Z,83.83
2023-01-03T18:54:58.470Z,83.82
2023-01-03T19:00:01.666Z,83.54
2023-01-03T19:05:05.237Z,83.31
2023-01-03T19:10:24.403Z,83.28
2023-01-03T19:15:29.549Z,83.16
2023-01-03T19:20:32.882Z,82.76
2023-01-03T19:25:35.999Z,82.80
2023-01-03T19:30:44.531Z,82.41
2023-01-03T19:35:49.134Z,82.53
2023-01-03T19:40:52.338Z,82.58
2023-01-03T19:45:55.482Z,82.56
2023-01-03T19:50:58.616Z,82.61
2023-01-03T19:56:03.055Z,82.79
2023-01-03T20:01:06.785Z,82.54
2023-01-03T20:06:13.917Z,82.35
2023-01-03T20:11:23.065Z,82.18
2023-01-03T20:16:28.668Z,81.84
2023-01-03T20:21:32.223Z,81.73
2023-01-03T20:27:44.461Z,82.19
2023-01-03T20:33:25.168Z,82.42
2023-01-03T20:38:28.379Z,82.49
2023-01-03T20:43:31.654Z,82.08
2023-01-03T20:48:34.890Z,82.29
2023-01-03T20:53:42.703Z,82.33
2023-01-03T20:59:19.708Z,82.65
2023-01-03T21:04:44.978Z,82.99
2023-01-03T21:10:10.315Z,83.28
2023-01-03T21:15:16.302Z,83.44
2023-01-03T21:20:23.028Z,83.13
2023-01-03T21:25:35.146Z,82.88
2023-01-03T21:31:49.043Z,83.07
2023-01-03T21:37:59.401Z,83.06
2023-01-03T21:44:21.060Z,83.05
2023-01-03T21:49:45.439Z,83.04
2023-01-03T21:55:03.886Z,82.91
2023-01-03T22:13:01.248Z,82.35
2023-01-03T22:18:20.091Z,82.16
2023-01-03T22:23:36.249Z,82.22
2023-01-03T22:28:46.739Z,82.00
2023-01-03T22:33:50.438Z,82.23
2023-01-03T22:38:53.591Z,82.22
2023-01-03T22:44:02.464Z,82.12
2023-01-03T22:49:05.564Z,82.08
2023-01-03T22:54:08.659Z,82.11
2023-01-03T22:59:11.898Z,82.04
2023-01-03T23:04:15.163Z,81.58
2023-01-03T23:09:18.413Z,81.35
2023-01-03T23:14:23.421Z,81.76
2023-01-03T23:19:27.421Z,81.24
2023-01-03T23:24:30.862Z,81.24
2023-01-03T23:29:34.084Z,81.27
2023-01-03T23:34:37.188Z,80.98
2023-01-03T23:39:40.474Z,81.15
2023-01-03T23:44:43.655Z,81.41
2023-01-03T23:49:46.816Z,81.64
2023-01-03T23:54:53.461Z,81.86
